createdAt,value
2019-03-04T00:01:46.031Z,58.52
2019-03-04T00:04:15.503Z,58.78
2019-03-04T00:06:44.996Z,59.00
2019-03-04T00:09:14.450Z,59.78
2019-03-04T00:11:43.961Z,60.39
2019-03-04T00:14:13.405Z,60.82
2019-03-04T00:16:42.897Z,61.37
2019-03-04T00:19:12.394Z,62.25
2019-03-04T00:21:41.859Z,62.93
2019-03-04T00:24:11.338Z,63.63
2019-03-04T00:26:40.820Z,63.75
2019-03-04T00:29:10.309Z,63.80
2019-03-04T00:31:39.800Z,64.26
2019-03-04T00:34:09.330Z,64.43
2019-03-04T00:36:38.786Z,64.54
2019-03-04T00:39:11.456Z,64.63
2019-03-04T00:41:41.061Z,64.82
2019-03-04T00:44:10.509Z,65.16
2019-03-04T00:46:39.999Z,65.13
2019-03-04T00:49:09.492Z,64.97
2019-03-04T00:51:39.005Z,64.84
2019-03-04T00:54:08.479Z,64.85
2019-03-04T00:56:37.995Z,65.00
2019-03-04T00:59:07.475Z,65.04
2019-03-04T01:01:36.955Z,65.01
2019-03-04T01:04:06.482Z,65.07
2019-03-04T01:06:35.973Z,65.01
2019-03-04T01:09:08.124Z,65.19
2019-03-04T01:11:37.633Z,65.22
2019-03-04T01:14:07.098Z,65.37
2019-03-04T01:16:36.622Z,65.61
2019-03-04T01:19:06.106Z,65.87
2019-03-04T01:21:35.604Z,65.85
2019-03-04T01:24:05.100Z,66.26
2019-03-04T01:26:34.610Z,66.38
2019-03-04T01:29:04.213Z,66.26
2019-03-04T01:31:33.679Z,66.43
2019-03-04T01:34:03.178Z,66.47
2019-03-04T01:36:32.752Z,66.42
2019-03-04T01:39:02.231Z,66.51
2019-03-04T01:41:31.742Z,66.23
2019-03-04T01:44:01.233Z,66.37
2019-03-04T01:46:30.721Z,66.30
2019-03-04T01:49:00.225Z,66.37
2019-03-04T01:51:29.717Z,66.21
2019-03-04T01:53:59.187Z,66.21
2019-03-04T01:56:28.672Z,66.18
2019-03-04T01:58:58.178Z,66.41
2019-03-04T02:01:27.675Z,66.51
2019-03-04T02:03:57.248Z,66.37
2019-03-04T02:06:26.729Z,66.49
2019-03-04T02:08:56.160Z,66.60
2019-03-04T02:11:25.653Z,66.65
2019-03-04T02:13:55.150Z,66.71
2019-03-04T02:16:24.640Z,66.65
2019-03-04T02:18:54.123Z,66.72
2019-03-04T02:21:23.653Z,66.83
2019-03-04T02:23:53.125Z,66.70
2019-03-04T02:26:32.391Z,66.69
2019-03-04T02:29:01.899Z,66.56
2019-03-04T02:31:31.374Z,66.60
2019-03-04T02:34:00.861Z,66.59
2019-03-04T02:36:32.066Z,66.68
2019-03-04T02:39:01.578Z,66.80
2019-03-04T02:41:31.058Z,66.88
2019-03-04T02:44:00.538Z,66.70
2019-03-04T02:46:30.038Z,66.82
2019-03-04T02:48:59.524Z,67.07
2019-03-04T02:51:29.027Z,67.01
2019-03-04T02:53:58.509Z,66.92
2019-03-04T02:56:28.019Z,66.96
2019-03-04T02:58:57.497Z,67.20
2019-03-04T03:01:26.970Z,67.08
2019-03-04T03:03:56.469Z,67.18
2019-03-04T03:06:25.958Z,67.41
2019-03-04T03:08:55.429Z,67.82
2019-03-04T03:11:24.965Z,68.13
2019-03-04T03:13:54.431Z,68.26
2019-03-04T03:16:23.893Z,68.39
2019-03-04T03:18:53.386Z,68.33
2019-03-04T03:21:22.876Z,68.29
2019-03-04T03:23:52.329Z,68.15
2019-03-04T03:26:21.808Z,68.15
2019-03-04T03:28:51.293Z,68.04
2019-03-04T03:31:20.779Z,67.93
2019-03-04T03:33:50.270Z,67.76
2019-03-04T03:36:19.745Z,67.67
2019-03-04T03:38:49.251Z,67.84
2019-03-04T03:41:18.755Z,67.86
2019-03-04T03:43:48.228Z,67.71
2019-03-04T03:46:17.723Z,67.77
2019-03-04T03:48:47.220Z,67.65
2019-03-04T03:51:16.802Z,67.66
2019-03-04T03:53:46.322Z,67.70
2019-03-04T03:56:15.805Z,67.66
2019-03-04T03:58:45.279Z,67.66
2019-03-04T04:01:14.751Z,67.65
2019-03-04T04:03:44.245Z,67.58
2019-03-04T04:06:13.763Z,67.50
2019-03-04T04:08:43.260Z,67.62
2019-03-04T04:11:12.727Z,67.53
2019-03-04T04:13:42.231Z,67.55
2019-03-04T04:16:11.726Z,67.46
2019-03-04T04:18:41.203Z,67.54
2019-03-04T04:21:10.683Z,67.58
2019-03-04T04:23:40.181Z,67.51
2019-03-04T04:26:21.813Z,67.50
2019-03-04T04:28:58.034Z,67.70
2019-03-04T04:31:27.533Z,67.68
2019-03-04T04:33:57.022Z,67.86
2019-03-04T04:36:26.523Z,68.02
2019-03-04T04:38:56.006Z,67.98
2019-03-04T04:41:25.486Z,67.88
2019-03-04T04:43:55.006Z,67.75
2019-03-04T04:47:02.568Z,67.96
2019-03-04T04:49:33.601Z,68.19
2019-03-04T04:52:03.100Z,67.99
2019-03-04T04:54:32.606Z,67.81
2019-03-04T04:57:02.150Z,67.92
2019-03-04T04:59:31.643Z,67.81
2019-03-04T05:02:01.146Z,67.75
2019-03-04T05:04:30.621Z,67.71
2019-03-04T05:07:00.107Z,67.88
2019-03-04T05:09:29.595Z,67.79
2019-03-04T05:11:59.860Z,67.94
2019-03-04T05:14:29.417Z,67.92
2019-03-04T05:16:58.899Z,67.87
2019-03-04T05:19:28.422Z,67.95
2019-03-04T05:21:57.998Z,67.94
2019-03-04T05:24:29.534Z,67.83
2019-03-04T05:26:58.683Z,67.92
2019-03-04T05:29:28.225Z,67.89
2019-03-04T05:31:57.716Z,67.80
2019-03-04T05:34:27.199Z,67.85
2019-03-04T05:36:56.860Z,67.64
2019-03-04T05:39:26.298Z,67.34
2019-03-04T05:41:55.776Z,67.11
2019-03-04T05:44:25.246Z,66.99
2019-03-04T05:46:54.770Z,66.77
2019-03-04T05:49:24.265Z,66.45
2019-03-04T05:51:53.735Z,66.20
2019-03-04T05:54:23.232Z,66.55
2019-03-04T05:56:52.741Z,66.87
2019-03-04T05:59:22.253Z,66.74
2019-03-04T06:02:10.995Z,66.90
2019-03-04T06:04:41.807Z,66.83
2019-03-04T06:07:33.503Z,66.78
2019-03-04T06:10:02.997Z,66.87
2019-03-04T06:12:32.485Z,66.76
2019-03-04T06:15:01.986Z,66.57
2019-03-04T06:17:31.477Z,66.66
2019-03-04T06:20:00.981Z,66.39
2019-03-04T06:22:30.489Z,66.23
2019-03-04T06:24:59.990Z,65.74
2019-03-04T06:27:29.507Z,65.75
2019-03-04T06:29:59.002Z,65.44
2019-03-04T06:32:28.504Z,65.09
2019-03-04T06:34:57.967Z,65.14
2019-03-04T06:37:27.443Z,64.81
2019-03-04T06:39:56.922Z,64.40
2019-03-04T06:42:26.385Z,64.28
2019-03-04T06:44:55.874Z,64.19
2019-03-04T06:47:25.381Z,63.95
2019-03-04T06:49:54.917Z,63.69
2019-03-04T06:52:25.404Z,63.39
2019-03-04T06:55:07.778Z,63.56
2019-03-04T06:57:41.296Z,63.80
2019-03-04T07:00:33.801Z,63.97
2019-03-04T07:03:09.939Z,62.95
2019-03-04T07:05:52.642Z,62.36
2019-03-04T07:09:09.991Z,62.28
2019-03-04T07:11:43.872Z,61.71
2019-03-04T07:14:13.431Z,61.82
2019-03-04T07:16:42.937Z,61.35
2019-03-04T07:19:32.529Z,61.43
2019-03-04T07:22:02.051Z,61.29
2019-03-04T07:24:31.601Z,60.56
2019-03-04T07:27:01.142Z,60.45
2019-03-04T07:29:30.647Z,60.21
2019-03-04T07:32:00.222Z,60.00
2019-03-04T07:34:29.747Z,59.67
2019-03-04T07:36:59.249Z,59.34
2019-03-04T07:39:29.085Z,59.24
2019-03-04T07:41:59.819Z,58.79
2019-03-04T07:44:29.308Z,58.54
2019-03-04T07:46:58.859Z,58.17
2019-03-04T07:49:28.291Z,58.38
2019-03-04T07:51:57.827Z,57.97
2019-03-04T07:54:27.402Z,57.76
2019-03-04T07:56:56.926Z,57.40
2019-03-04T07:59:26.449Z,56.98
2019-03-04T08:01:55.971Z,57.13
2019-03-04T08:04:25.490Z,56.69
2019-03-04T08:07:23.175Z,56.64
2019-03-04T08:10:18.561Z,56.61
2019-03-04T08:13:11.812Z,56.55
2019-03-04T08:15:46.512Z,56.12
2019-03-04T08:18:16.033Z,55.80
2019-03-04T08:20:45.538Z,55.57
2019-03-04T08:23:15.016Z,55.52
2019-03-04T08:25:44.516Z,55.27
2019-03-04T08:28:15.400Z,54.85
2019-03-04T08:30:45.040Z,55.07
2019-03-04T08:33:14.569Z,54.65
2019-03-04T08:35:44.046Z,54.41
2019-03-04T08:38:13.559Z,54.40
2019-03-04T08:40:43.044Z,54.23
2019-03-04T08:43:12.509Z,53.45
2019-03-04T08:45:41.983Z,53.19
2019-03-04T08:48:11.486Z,53.38
2019-03-04T08:50:40.982Z,53.45
2019-03-04T08:53:10.492Z,52.86
2019-03-04T08:55:39.993Z,53.00
2019-03-04T08:58:09.505Z,52.42
2019-03-04T09:00:39.009Z,51.76
2019-03-04T09:03:08.749Z,51.95
2019-03-04T09:05:38.245Z,51.92
2019-03-04T09:08:07.720Z,51.54
2019-03-04T09:10:37.266Z,51.03
2019-03-04T09:13:06.763Z,50.95
2019-03-04T09:15:36.415Z,50.86
2019-03-04T09:18:05.890Z,51.00
2019-03-04T09:20:35.467Z,50.43
2019-03-04T09:23:04.975Z,49.97
2019-03-04T09:25:37.250Z,49.96
2019-03-04T09:28:06.888Z,49.85
2019-03-04T09:30:36.418Z,49.61
2019-03-04T09:33:05.953Z,49.74
2019-03-04T09:35:35.468Z,49.38
2019-03-04T09:38:05.626Z,49.21
2019-03-04T09:40:35.197Z,49.10
2019-03-04T09:43:04.810Z,48.74
2019-03-04T09:45:38.979Z,48.60
2019-03-04T09:48:05.816Z,48.49
2019-03-04T09:50:35.279Z,48.29
2019-03-04T09:53:04.800Z,48.00
2019-03-04T09:55:34.335Z,47.85
2019-03-04T09:58:05.315Z,47.28
2019-03-04T10:00:43.604Z,47.05
2019-03-04T10:03:34.123Z,46.67
2019-03-04T10:06:34.901Z,46.29
2019-03-04T10:09:40.246Z,45.74
2019-03-04T10:12:50.921Z,45.48
2019-03-04T10:15:52.694Z,44.82
2019-03-04T10:19:04.631Z,44.46
2019-03-04T10:22:08.170Z,44.41
2019-03-04T10:25:29.606Z,44.48
2019-03-04T10:28:35.871Z,43.74
2019-03-04T10:31:36.127Z,43.78
2019-03-04T10:34:32.062Z,43.63
2019-03-04T10:37:35.083Z,43.50
2019-03-04T10:40:29.789Z,40.00
2019-03-04T10:43:41.173Z,39.06
2019-03-04T10:46:46.375Z,38.62
2019-03-04T10:49:15.897Z,38.30
2019-03-04T10:51:45.408Z,38.14
2019-03-04T10:54:14.992Z,38.22
2019-03-04T10:56:44.521Z,37.51
2019-03-04T10:59:14.043Z,37.54
2019-03-04T11:01:43.559Z,37.40
2019-03-04T11:04:13.091Z,37.44
2019-03-04T11:06:42.596Z,36.98
2019-03-04T11:09:12.342Z,36.94
2019-03-04T11:11:41.797Z,36.77
2019-03-04T11:14:11.325Z,36.49
2019-03-04T11:16:40.906Z,36.62
2019-03-04T11:19:10.478Z,36.36
2019-03-04T11:21:39.989Z,36.14
2019-03-04T11:24:11.149Z,35.68
2019-03-04T11:26:40.792Z,35.79
2019-03-04T11:29:13.269Z,35.75
2019-03-04T11:31:42.598Z,35.25
2019-03-04T11:34:12.081Z,35.31
2019-03-04T11:36:41.602Z,35.17
2019-03-04T11:40:03.864Z,35.31
2019-03-04T11:42:33.392Z,35.14
2019-03-04T11:45:02.961Z,34.55
2019-03-04T11:47:32.501Z,34.50
2019-03-04T11:50:01.989Z,34.67
2019-03-04T11:52:31.473Z,34.30
2019-03-04T11:55:00.993Z,34.17
2019-03-04T11:57:30.564Z,33.99
2019-03-04T12:00:00.083Z,33.91
2019-03-04T12:02:38.855Z,34.34
2019-03-04T12:05:03.420Z,33.77
2019-03-04T12:07:32.910Z,33.97
2019-03-04T12:10:02.595Z,33.79
2019-03-04T12:12:32.124Z,33.93
2019-03-04T12:15:01.720Z,33.42
2019-03-04T12:17:31.227Z,33.31
2019-03-04T12:20:00.816Z,33.00
2019-03-04T12:22:30.433Z,33.38
2019-03-04T12:24:59.914Z,33.01
2019-03-04T12:27:29.397Z,32.90
2019-03-04T12:29:58.988Z,32.85
2019-03-04T12:32:37.446Z,32.91
2019-03-04T12:35:09.985Z,32.19
2019-03-04T12:37:39.480Z,32.06
2019-03-04T12:40:10.845Z,31.88
2019-03-04T12:42:40.346Z,31.70
2019-03-04T12:45:12.145Z,31.83
2019-03-04T12:47:42.059Z,32.11
2019-03-04T12:50:29.843Z,32.55
2019-03-04T12:52:59.365Z,32.15
2019-03-04T12:55:28.921Z,32.38
2019-03-04T12:57:58.471Z,32.64
2019-03-04T13:00:28.024Z,32.18
2019-03-04T13:02:58.207Z,32.27
2019-03-04T13:05:27.751Z,32.22
2019-03-04T13:07:57.258Z,32.54
2019-03-04T13:10:26.983Z,32.62
2019-03-04T13:12:56.509Z,32.62
2019-03-04T13:15:26.122Z,32.41
2019-03-04T13:17:55.686Z,32.62
2019-03-04T13:20:25.225Z,32.67
2019-03-04T13:22:54.795Z,32.71
2019-03-04T13:25:24.314Z,32.72
2019-03-04T13:27:53.836Z,32.33
2019-03-04T13:30:23.849Z,32.80
2019-03-04T13:32:53.559Z,32.39
2019-03-04T13:35:24.876Z,32.41
2019-03-04T13:37:54.584Z,32.44
2019-03-04T13:40:24.083Z,32.50
2019-03-04T13:42:53.732Z,32.39
2019-03-04T13:45:23.553Z,32.33
2019-03-04T13:47:53.180Z,32.35
2019-03-04T13:50:23.378Z,32.01
2019-03-04T13:52:52.885Z,32.23
2019-03-04T13:55:22.510Z,32.10
2019-03-04T13:57:52.095Z,31.92
2019-03-04T14:00:21.916Z,32.02
2019-03-04T14:02:51.480Z,32.29
2019-03-04T14:05:21.366Z,31.91
2019-03-04T14:07:50.898Z,31.72
2019-03-04T14:10:20.991Z,31.64
2019-03-04T14:12:50.463Z,31.76
2019-03-04T14:15:23.219Z,31.65
2019-03-04T14:17:52.820Z,31.51
2019-03-04T14:20:22.347Z,31.57
2019-03-04T14:22:57.568Z,31.62
2019-03-04T14:25:23.199Z,31.51
2019-03-04T14:27:52.718Z,31.62
2019-03-04T14:30:22.446Z,31.68
2019-03-04T14:32:51.972Z,31.52
2019-03-04T14:35:21.488Z,31.45
2019-03-04T14:37:50.997Z,31.48
2019-03-04T14:40:20.530Z,31.72
2019-03-04T14:42:50.088Z,31.46
2019-03-04T14:45:19.844Z,31.33
2019-03-04T14:47:49.604Z,31.18
2019-03-04T14:50:19.374Z,31.09
2019-03-04T14:52:48.877Z,31.11
2019-03-04T14:55:19.136Z,31.29
2019-03-04T14:57:48.697Z,31.08
2019-03-04T15:00:22.623Z,31.02
2019-03-04T15:02:52.139Z,30.93
2019-03-04T15:05:21.761Z,32.14
2019-03-04T15:07:51.239Z,30.85
2019-03-04T15:10:20.935Z,31.04
2019-03-04T15:12:50.483Z,31.12
2019-03-04T15:15:20.108Z,30.66
2019-03-04T15:17:49.676Z,30.74
2019-03-04T15:20:20.990Z,30.98
2019-03-04T15:22:50.485Z,30.92
2019-03-04T15:25:22.374Z,30.62
2019-03-04T15:27:51.885Z,30.71
2019-03-04T15:30:21.535Z,30.79
2019-03-04T15:32:51.089Z,30.71
2019-03-04T15:35:20.623Z,30.57
2019-03-04T15:37:50.147Z,30.76
2019-03-04T15:40:19.618Z,30.54
2019-03-04T15:42:49.119Z,30.57
2019-03-04T15:45:18.673Z,30.74
2019-03-04T15:47:48.229Z,30.73
2019-03-04T15:50:17.765Z,30.79
2019-03-04T15:52:47.285Z,30.90
2019-03-04T15:55:16.758Z,31.03
2019-03-04T15:57:48.693Z,31.16
2019-03-04T16:00:18.177Z,31.06
2019-03-04T16:02:48.899Z,31.02
2019-03-04T16:05:18.613Z,31.31
2019-03-04T16:07:48.220Z,31.34
2019-03-04T16:10:18.605Z,31.51
2019-03-04T16:12:48.136Z,31.46
2019-03-04T16:15:18.175Z,31.77
2019-03-04T16:17:48.676Z,31.76
2019-03-04T16:20:18.436Z,31.89
2019-03-04T16:22:48.182Z,32.13
2019-03-04T16:25:17.801Z,31.62
2019-03-04T16:27:49.611Z,31.88
2019-03-04T16:30:20.176Z,31.76
2019-03-04T16:32:49.722Z,32.08
2019-03-04T16:35:19.314Z,32.16
2019-03-04T16:37:48.846Z,32.19
2019-03-04T16:40:18.421Z,32.05
2019-03-04T16:42:47.954Z,32.20
2019-03-04T16:45:17.740Z,32.48
2019-03-04T16:47:47.550Z,32.70
2019-03-04T16:50:17.325Z,32.78
2019-03-04T16:52:47.244Z,32.75
2019-03-04T16:55:17.167Z,33.13
2019-03-04T16:57:46.801Z,33.05
2019-03-04T17:00:17.842Z,32.80
2019-03-04T17:02:47.454Z,31.88
2019-03-04T17:05:17.687Z,31.93
2019-03-04T17:07:47.416Z,32.43
2019-03-04T17:10:18.177Z,32.96
2019-03-04T17:12:47.713Z,32.54
2019-03-04T17:15:18.947Z,32.47
2019-03-04T17:17:48.682Z,32.54
2019-03-04T17:20:19.088Z,32.63
2019-03-04T17:22:48.728Z,32.75
2019-03-04T17:25:18.390Z,32.75
2019-03-04T17:27:48.156Z,32.85
2019-03-04T17:30:18.632Z,32.94
2019-03-04T17:32:48.324Z,32.84
2019-03-04T17:35:18.537Z,32.71
2019-03-04T17:37:48.173Z,32.59
2019-03-04T17:40:18.240Z,32.47
2019-03-04T17:42:47.874Z,32.63
2019-03-04T17:45:18.023Z,33.70
2019-03-04T17:47:47.605Z,34.48
2019-03-04T17:50:27.830Z,34.86
2019-03-04T17:52:57.321Z,35.72
2019-03-04T17:55:26.817Z,36.05
2019-03-04T17:57:56.576Z,36.32
2019-03-04T18:00:26.200Z,36.33
2019-03-04T18:02:55.722Z,35.78
2019-03-04T18:05:25.290Z,36.20
2019-03-04T18:07:54.816Z,36.40
2019-03-04T18:10:24.407Z,36.47
2019-03-04T18:12:54.899Z,35.93
2019-03-04T18:15:24.438Z,35.64
2019-03-04T18:17:54.022Z,35.40
2019-03-04T18:20:33.603Z,35.22
2019-03-04T18:22:54.831Z,35.04
2019-03-04T18:25:39.846Z,34.91
2019-03-04T18:28:57.535Z,34.81
2019-03-04T18:31:49.258Z,34.66
2019-03-04T18:34:58.416Z,34.00
2019-03-04T18:37:39.913Z,33.98
2019-03-04T18:40:38.814Z,33.48
2019-03-04T18:44:01.779Z,33.37
2019-03-04T18:46:56.907Z,32.98
2019-03-04T18:49:26.423Z,32.89
2019-03-04T18:51:55.987Z,32.70
2019-03-04T18:54:25.507Z,32.09
2019-03-04T18:56:55.222Z,32.18
2019-03-04T18:59:24.770Z,31.69
2019-03-04T19:01:54.269Z,31.75
2019-03-04T19:04:23.875Z,31.87
2019-03-04T19:06:53.390Z,31.56
2019-03-04T19:09:22.953Z,31.83
2019-03-04T19:11:52.443Z,31.94
2019-03-04T19:14:21.954Z,32.20
2019-03-04T19:16:52.703Z,31.41
2019-03-04T19:19:22.227Z,31.68
2019-03-04T19:21:51.752Z,32.02
2019-03-04T19:24:21.290Z,32.21
2019-03-04T19:26:50.814Z,32.41
2019-03-04T19:29:20.419Z,32.57
2019-03-04T19:31:50.038Z,33.99
2019-03-04T19:34:19.633Z,35.28
2019-03-04T19:36:49.189Z,36.00
2019-03-04T19:39:18.777Z,36.40
2019-03-04T19:41:48.297Z,36.77
2019-03-04T19:44:17.862Z,37.05
2019-03-04T19:46:47.458Z,37.45
2019-03-04T19:49:16.995Z,37.58
2019-03-04T19:51:46.562Z,37.81
2019-03-04T19:54:16.193Z,38.14
2019-03-04T19:56:45.688Z,38.21
2019-03-04T19:59:15.308Z,37.63
2019-03-04T20:01:44.843Z,37.94
2019-03-04T20:04:14.368Z,38.30
2019-03-04T20:06:43.892Z,38.88
2019-03-04T20:09:13.605Z,39.10
2019-03-04T20:11:43.088Z,39.64
2019-03-04T20:14:12.608Z,39.57
2019-03-04T20:16:42.232Z,39.58
2019-03-04T20:19:11.778Z,39.73
2019-03-04T20:21:41.273Z,39.65
2019-03-04T20:24:10.745Z,39.79
2019-03-04T20:26:40.290Z,39.87
2019-03-04T20:29:09.769Z,39.79
2019-03-04T20:31:39.526Z,39.73
2019-03-04T20:34:09.017Z,39.68
2019-03-04T20:36:38.558Z,39.81
2019-03-04T20:39:10.383Z,39.77
2019-03-04T20:41:39.936Z,39.77
2019-03-04T20:44:09.452Z,40.12
2019-03-04T20:46:42.412Z,40.24
2019-03-04T20:49:12.006Z,40.67
2019-03-04T20:51:41.531Z,41.09
2019-03-04T20:54:11.030Z,41.58
2019-03-04T20:56:40.543Z,42.08
2019-03-04T20:59:10.090Z,42.63
2019-03-04T21:01:39.893Z,43.21
2019-03-04T21:04:09.522Z,43.95
2019-03-04T21:06:39.176Z,44.71
2019-03-04T21:09:10.623Z,44.81
2019-03-04T21:11:40.249Z,45.07
2019-03-04T21:14:09.743Z,44.84
2019-03-04T21:16:39.264Z,45.08
2019-03-04T21:19:08.738Z,45.26
2019-03-04T21:21:38.366Z,45.31
2019-03-04T21:24:07.865Z,45.25
2019-03-04T21:26:48.578Z,45.31
2019-03-04T21:29:47.707Z,45.45
2019-03-04T21:32:37.784Z,45.38
2019-03-04T21:35:53.258Z,45.43
2019-03-04T21:38:29.134Z,45.70
2019-03-04T21:41:07.553Z,45.59
2019-03-04T21:43:45.177Z,45.72
2019-03-04T21:46:56.069Z,45.55
2019-03-04T21:49:26.811Z,45.51
2019-03-04T21:52:28.185Z,45.14
2019-03-04T21:54:57.777Z,45.04
2019-03-04T21:57:33.757Z,45.22
2019-03-04T22:00:03.638Z,45.50
2019-03-04T22:02:54.011Z,45.25
2019-03-04T22:05:23.597Z,44.98
2019-03-04T22:07:53.181Z,44.90
2019-03-04T22:10:22.770Z,45.50
2019-03-04T22:12:52.291Z,45.45
2019-03-04T22:15:21.809Z,45.93
2019-03-04T22:17:51.398Z,45.80
2019-03-04T22:20:20.908Z,45.71
2019-03-04T22:22:50.580Z,45.72
2019-03-04T22:25:21.224Z,45.78
2019-03-04T22:27:50.751Z,45.84
2019-03-04T22:30:20.470Z,45.99
2019-03-04T22:32:49.962Z,46.11
2019-03-04T22:35:21.127Z,45.71
2019-03-04T22:37:50.692Z,45.92
2019-03-04T22:40:20.941Z,45.93
2019-03-04T22:42:50.460Z,46.11
2019-03-04T22:45:20.145Z,46.12
2019-03-04T22:47:50.211Z,46.13
2019-03-04T22:50:20.315Z,45.96
2019-03-04T22:52:49.843Z,45.88
2019-03-04T22:55:26.190Z,46.12
2019-03-04T22:57:55.721Z,46.28
2019-03-04T23:01:22.860Z,46.58
2019-03-04T23:03:52.992Z,46.47
2019-03-04T23:06:25.449Z,47.06
2019-03-04T23:08:54.909Z,47.33
2019-03-04T23:11:27.530Z,47.47
2019-03-04T23:14:15.950Z,47.39
2019-03-04T23:16:45.458Z,47.79
2019-03-04T23:19:14.950Z,47.92
2019-03-04T23:21:44.491Z,48.25
2019-03-04T23:24:13.985Z,48.20
2019-03-04T23:26:43.498Z,48.30
2019-03-04T23:29:13.024Z,48.29
2019-03-04T23:31:42.525Z,48.57
2019-03-04T23:34:12.020Z,48.65
2019-03-04T23:36:41.580Z,48.83
2019-03-04T23:39:11.464Z,48.69
2019-03-04T23:41:40.919Z,48.88
2019-03-04T23:44:10.611Z,49.19
2019-03-04T23:46:40.144Z,48.46
2019-03-04T23:49:09.670Z,48.64
2019-03-04T23:51:39.178Z,48.92
2019-03-04T23:54:08.671Z,49.63
2019-03-04T23:56:38.864Z,49.51
2019-03-04T23:59:08.384Z,49.68
